sensor_id;sensor_type;location;lat;lon;timestamp;P1;durP1;ratioP1;P2;durP2;ratioP2
49440;SDS011;35317;51.978;6.296;2023-04-15T00:00:00;4.70;;;3.25;;
49440;SDS011;35317;51.978;6.296;2023-04-15T00:05:01;5.53;;;3.28;;
49440;SDS011;35317;51.978;6.296;2023-04-15T00:10:02;5.35;;;3.08;;
49440;SDS011;35317;51.978;6.296;2023-04-15T00:15:04;6.25;;;3.25;;
49440;SDS011;35317;51.978;6.296;2023-04-15T00:20:07;5.35;;;3.13;;
49440;SDS011;35317;51.978;6.296;2023-04-15T00:25:09;7.20;;;4.28;;
49440;SDS011;35317;51.978;6.296;2023-04-15T00:30:10;9.73;;;3.45;;
49440;SDS011;35317;51.978;6.296;2023-04-15T00:35:12;5.85;;;3.88;;
49440;SDS011;35317;51.978;6.296;2023-04-15T00:40:12;10.07;;;3.80;;
49440;SDS011;35317;51.978;6.296;2023-04-15T00:45:18;9.40;;;3.42;;
49440;SDS011;35317;51.978;6.296;2023-04-15T00:50:19;5.25;;;3.10;;
49440;SDS011;35317;51.978;6.296;2023-04-15T00:55:19;6.78;;;3.25;;
49440;SDS011;35317;51.978;6.296;2023-04-15T01:00:20;7.00;;;3.35;;
49440;SDS011;35317;51.978;6.296;2023-04-15T01:05:21;6.10;;;3.30;;
49440;SDS011;35317;51.978;6.296;2023-04-15T01:10:22;4.75;;;3.20;;
49440;SDS011;35317;51.978;6.296;2023-04-15T01:15:23;6.60;;;3.33;;
49440;SDS011;35317;51.978;6.296;2023-04-15T01:20:24;12.85;;;3.70;;
49440;SDS011;35317;51.978;6.296;2023-04-15T01:25:33;5.63;;;3.15;;
49440;SDS011;35317;51.978;6.296;2023-04-15T01:30:34;7.57;;;3.50;;
49440;SDS011;35317;51.978;6.296;2023-04-15T01:35:35;7.43;;;3.47;;
49440;SDS011;35317;51.978;6.296;2023-04-15T01:40:36;6.57;;;3.42;;
49440;SDS011;35317;51.978;6.296;2023-04-15T01:45:37;4.18;;;3.10;;
49440;SDS011;35317;51.978;6.296;2023-04-15T01:50:38;7.03;;;3.50;;
49440;SDS011;35317;51.978;6.296;2023-04-15T01:55:39;5.60;;;3.40;;
49440;SDS011;35317;51.978;6.296;2023-04-15T02:00:40;5.93;;;3.13;;
49440;SDS011;35317;51.978;6.296;2023-04-15T02:05:41;5.55;;;3.15;;
49440;SDS011;35317;51.978;6.296;2023-04-15T02:10:42;7.45;;;3.35;;
49440;SDS011;35317;51.978;6.296;2023-04-15T02:15:46;6.72;;;3.33;;
49440;SDS011;35317;51.978;6.296;2023-04-15T02:20:50;6.38;;;3.63;;
49440;SDS011;35317;51.978;6.296;2023-04-15T02:25:51;8.35;;;3.58;;
49440;SDS011;35317;51.978;6.296;2023-04-15T02:30:52;8.88;;;4.07;;
49440;SDS011;35317;51.978;6.296;2023-04-15T02:35:55;8.88;;;3.85;;
49440;SDS011;35317;51.978;6.296;2023-04-15T02:40:56;8.25;;;4.10;;
49440;SDS011;35317;51.978;6.296;2023-04-15T02:45:56;5.78;;;3.72;;
49440;SDS011;35317;51.978;6.296;2023-04-15T02:51:09;6.57;;;3.60;;
49440;SDS011;35317;51.978;6.296;2023-04-15T02:56:14;5.40;;;3.75;;
49440;SDS011;35317;51.978;6.296;2023-04-15T03:01:16;6.15;;;3.75;;
49440;SDS011;35317;51.978;6.296;2023-04-15T03:06:17;6.13;;;3.85;;
49440;SDS011;35317;51.978;6.296;2023-04-15T03:11:18;7.80;;;3.75;;
49440;SDS011;35317;51.978;6.296;2023-04-15T03:16:20;8.35;;;4.50;;
49440;SDS011;35317;51.978;6.296;2023-04-15T03:21:21;9.02;;;4.47;;
49440;SDS011;35317;51.978;6.296;2023-04-15T03:26:24;6.30;;;3.53;;
49440;SDS011;35317;51.978;6.296;2023-04-15T03:31:30;8.23;;;4.38;;
49440;SDS011;35317;51.978;6.296;2023-04-15T03:36:30;9.77;;;4.65;;
49440;SDS011;35317;51.978;6.296;2023-04-15T03:41:34;7.85;;;4.45;;
49440;SDS011;35317;51.978;6.296;2023-04-15T03:46:35;10.13;;;4.40;;
49440;SDS011;35317;51.978;6.296;2023-04-15T03:51:36;11.50;;;4.82;;
49440;SDS011;35317;51.978;6.296;2023-04-15T03:56:37;6.18;;;4.15;;
49440;SDS011;35317;51.978;6.296;2023-04-15T04:01:37;9.85;;;5.10;;
49440;SDS011;35317;51.978;6.296;2023-04-15T04:06:38;8.52;;;4.82;;
49440;SDS011;35317;51.978;6.296;2023-04-15T04:11:39;7.25;;;4.15;;
49440;SDS011;35317;51.978;6.296;2023-04-15T04:16:40;9.50;;;4.85;;
49440;SDS011;35317;51.978;6.296;2023-04-15T04:21:41;10.75;;;5.70;;
49440;SDS011;35317;51.978;6.296;2023-04-15T04:26:41;9.18;;;5.28;;
49440;SDS011;35317;51.978;6.296;2023-04-15T04:31:42;9.23;;;5.10;;
49440;SDS011;35317;51.978;6.296;2023-04-15T04:36:43;8.80;;;4.75;;
49440;SDS011;35317;51.978;6.296;2023-04-15T04:41:44;8.30;;;4.47;;
49440;SDS011;35317;51.978;6.296;2023-04-15T04:46:45;7.00;;;4.78;;
49440;SDS011;35317;51.978;6.296;2023-04-15T04:51:45;9.35;;;5.18;;
49440;SDS011;35317;51.978;6.296;2023-04-15T04:56:47;10.68;;;5.15;;
49440;SDS011;35317;51.978;6.296;2023-04-15T05:01:48;8.63;;;4.90;;
49440;SDS011;35317;51.978;6.296;2023-04-15T05:06:49;9.30;;;4.85;;
49440;SDS011;35317;51.978;6.296;2023-04-15T05:11:50;10.30;;;5.45;;
49440;SDS011;35317;51.978;6.296;2023-04-15T05:16:51;9.73;;;5.63;;
49440;SDS011;35317;51.978;6.296;2023-04-15T05:21:52;10.75;;;5.75;;
49440;SDS011;35317;51.978;6.296;2023-04-15T05:26:52;12.32;;;6.15;;
49440;SDS011;35317;51.978;6.296;2023-04-15T05:31:53;10.60;;;5.65;;
49440;SDS011;35317;51.978;6.296;2023-04-15T05:36:54;9.27;;;5.07;;
49440;SDS011;35317;51.978;6.296;2023-04-15T05:41:55;11.52;;;5.70;;
49440;SDS011;35317;51.978;6.296;2023-04-15T05:46:56;10.30;;;5.57;;
49440;SDS011;35317;51.978;6.296;2023-04-15T05:51:57;11.88;;;5.97;;
49440;SDS011;35317;51.978;6.296;2023-04-15T05:56:58;10.13;;;5.28;;
49440;SDS011;35317;51.978;6.296;2023-04-15T06:01:59;9.13;;;5.18;;
49440;SDS011;35317;51.978;6.296;2023-04-15T06:06:59;10.30;;;5.32;;
49440;SDS011;35317;51.978;6.296;2023-04-15T06:12:00;10.07;;;5.55;;
49440;SDS011;35317;51.978;6.296;2023-04-15T06:17:02;13.80;;;6.00;;
49440;SDS011;35317;51.978;6.296;2023-04-15T06:22:02;11.55;;;6.05;;
49440;SDS011;35317;51.978;6.296;2023-04-15T06:27:05;8.85;;;5.20;;
49440;SDS011;35317;51.978;6.296;2023-04-15T06:32:06;9.50;;;5.18;;
49440;SDS011;35317;51.978;6.296;2023-04-15T06:37:07;10.27;;;5.65;;
49440;SDS011;35317;51.978;6.296;2023-04-15T06:42:10;11.57;;;5.30;;
49440;SDS011;35317;51.978;6.296;2023-04-15T06:47:11;9.20;;;5.18;;
49440;SDS011;35317;51.978;6.296;2023-04-15T06:52:13;8.27;;;5.00;;
49440;SDS011;35317;51.978;6.296;2023-04-15T06:57:15;9.38;;;5.07;;
49440;SDS011;35317;51.978;6.296;2023-04-15T07:02:16;8.48;;;4.57;;
49440;SDS011;35317;51.978;6.296;2023-04-15T07:07:17;10.38;;;5.47;;
49440;SDS011;35317;51.978;6.296;2023-04-15T07:12:18;9.25;;;4.80;;
49440;SDS011;35317;51.978;6.296;2023-04-15T07:17:20;9.13;;;5.35;;
49440;SDS011;35317;51.978;6.296;2023-04-15T07:22:21;8.68;;;5.20;;
49440;SDS011;35317;51.978;6.296;2023-04-15T07:27:21;8.13;;;5.15;;
49440;SDS011;35317;51.978;6.296;2023-04-15T07:32:22;10.70;;;5.45;;
49440;SDS011;35317;51.978;6.296;2023-04-15T07:37:23;10.60;;;5.72;;
49440;SDS011;35317;51.978;6.296;2023-04-15T07:42:24;9.07;;;5.13;;
49440;SDS011;35317;51.978;6.296;2023-04-15T07:47:25;8.68;;;5.38;;
49440;SDS011;35317;51.978;6.296;2023-04-15T07:52:26;8.73;;;4.53;;
49440;SDS011;35317;51.978;6.296;2023-04-15T07:57:27;5.88;;;3.88;;
49440;SDS011;35317;51.978;6.296;2023-04-15T08:02:28;5.65;;;3.70;;
49440;SDS011;35317;51.978;6.296;2023-04-15T08:07:29;4.50;;;2.97;;
49440;SDS011;35317;51.978;6.296;2023-04-15T08:12:30;5.15;;;3.47;;
49440;SDS011;35317;51.978;6.296;2023-04-15T08:17:31;5.70;;;3.58;;
49440;SDS011;35317;51.978;6.296;2023-04-15T08:22:32;3.80;;;2.72;;
49440;SDS011;35317;51.978;6.296;2023-04-15T08:27:33;4.07;;;2.50;;
49440;SDS011;35317;51.978;6.296;2023-04-15T08:32:34;3.85;;;2.30;;
49440;SDS011;35317;51.978;6.296;2023-04-15T08:37:35;4.78;;;2.63;;
49440;SDS011;35317;51.978;6.296;2023-04-15T08:42:36;4.05;;;2.42;;
49440;SDS011;35317;51.978;6.296;2023-04-15T08:47:44;3.50;;;2.47;;
49440;SDS011;35317;51.978;6.296;2023-04-15T08:52:47;4.65;;;3.00;;
49440;SDS011;35317;51.978;6.296;2023-04-15T08:57:48;5.75;;;3.55;;
49440;SDS011;35317;51.978;6.296;2023-04-15T09:02:48;6.05;;;3.08;;
49440;SDS011;35317;51.978;6.296;2023-04-15T09:07:50;4.82;;;3.13;;
49440;SDS011;35317;51.978;6.296;2023-04-15T09:12:51;4.18;;;2.85;;
49440;SDS011;35317;51.978;6.296;2023-04-15T09:17:52;3.88;;;2.72;;
49440;SDS011;35317;51.978;6.296;2023-04-15T09:22:52;4.05;;;2.25;;
49440;SDS011;35317;51.978;6.296;2023-04-15T09:27:59;5.00;;;2.70;;
49440;SDS011;35317;51.978;6.296;2023-04-15T09:33:01;4.57;;;2.83;;
49440;SDS011;35317;51.978;6.296;2023-04-15T09:38:08;3.78;;;2.42;;
49440;SDS011;35317;51.978;6.296;2023-04-15T09:43:09;4.93;;;2.03;;
49440;SDS011;35317;51.978;6.296;2023-04-15T09:48:17;2.15;;;1.83;;
49440;SDS011;35317;51.978;6.296;2023-04-15T09:58:26;3.45;;;1.70;;
49440;SDS011;35317;51.978;6.296;2023-04-15T10:03:30;3.50;;;2.22;;
49440;SDS011;35317;51.978;6.296;2023-04-15T10:08:34;3.20;;;1.70;;
49440;SDS011;35317;51.978;6.296;2023-04-15T10:13:35;4.10;;;2.03;;
49440;SDS011;35317;51.978;6.296;2023-04-15T10:18:39;2.95;;;2.10;;
49440;SDS011;35317;51.978;6.296;2023-04-15T10:23:46;5.82;;;2.40;;
49440;SDS011;35317;51.978;6.296;2023-04-15T10:28:47;2.95;;;2.10;;
49440;SDS011;35317;51.978;6.296;2023-04-15T10:33:49;3.85;;;1.98;;
49440;SDS011;35317;51.978;6.296;2023-04-15T10:38:50;3.65;;;2.22;;
49440;SDS011;35317;51.978;6.296;2023-04-15T10:43:52;2.75;;;1.52;;
49440;SDS011;35317;51.978;6.296;2023-04-15T10:48:53;1.88;;;1.40;;
49440;SDS011;35317;51.978;6.296;2023-04-15T10:54:00;2.20;;;1.60;;
49440;SDS011;35317;51.978;6.296;2023-04-15T10:59:01;2.95;;;1.70;;
49440;SDS011;35317;51.978;6.296;2023-04-15T11:04:04;3.15;;;1.85;;
49440;SDS011;35317;51.978;6.296;2023-04-15T11:09:05;2.28;;;1.50;;
49440;SDS011;35317;51.978;6.296;2023-04-15T11:14:13;2.10;;;1.67;;
49440;SDS011;35317;51.978;6.296;2023-04-15T11:19:15;3.33;;;1.98;;
49440;SDS011;35317;51.978;6.296;2023-04-15T11:24:23;3.60;;;1.90;;
49440;SDS011;35317;51.978;6.296;2023-04-15T11:29:28;2.10;;;1.60;;
49440;SDS011;35317;51.978;6.296;2023-04-15T11:34:31;3.03;;;1.67;;
49440;SDS011;35317;51.978;6.296;2023-04-15T11:39:32;2.92;;;1.90;;
49440;SDS011;35317;51.978;6.296;2023-04-15T11:44:33;3.13;;;1.65;;
49440;SDS011;35317;51.978;6.296;2023-04-15T11:49:34;2.20;;;1.73;;
49440;SDS011;35317;51.978;6.296;2023-04-15T11:54:39;1.63;;;1.40;;
49440;SDS011;35317;51.978;6.296;2023-04-15T11:59:42;1.77;;;1.13;;
49440;SDS011;35317;51.978;6.296;2023-04-15T12:09:45;1.45;;;1.02;;
49440;SDS011;35317;51.978;6.296;2023-04-15T12:14:55;3.03;;;1.20;;
49440;SDS011;35317;51.978;6.296;2023-04-15T12:19:57;2.33;;;0.95;;
49440;SDS011;35317;51.978;6.296;2023-04-15T12:24:58;0.80;;;0.60;;
49440;SDS011;35317;51.978;6.296;2023-04-15T12:30:04;2.27;;;1.00;;
49440;SDS011;35317;51.978;6.296;2023-04-15T12:35:07;1.55;;;0.88;;
49440;SDS011;35317;51.978;6.296;2023-04-15T12:40:10;1.58;;;0.80;;
49440;SDS011;35317;51.978;6.296;2023-04-15T12:45:26;1.08;;;0.90;;
49440;SDS011;35317;51.978;6.296;2023-04-15T12:50:26;2.17;;;1.48;;
49440;SDS011;35317;51.978;6.296;2023-04-15T12:55:27;1.00;;;0.90;;
49440;SDS011;35317;51.978;6.296;2023-04-15T13:00:29;1.45;;;0.90;;
49440;SDS011;35317;51.978;6.296;2023-04-15T13:05:43;2.05;;;0.82;;
49440;SDS011;35317;51.978;6.296;2023-04-15T13:10:44;1.85;;;0.90;;
49440;SDS011;35317;51.978;6.296;2023-04-15T13:15:45;0.82;;;0.70;;
49440;SDS011;35317;51.978;6.296;2023-04-15T13:20:47;3.83;;;1.30;;
49440;SDS011;35317;51.978;6.296;2023-04-15T13:25:48;1.20;;;0.88;;
49440;SDS011;35317;51.978;6.296;2023-04-15T13:30:49;0.77;;;0.77;;
49440;SDS011;35317;51.978;6.296;2023-04-15T13:35:50;1.23;;;0.90;;
49440;SDS011;35317;51.978;6.296;2023-04-15T13:40:51;0.93;;;0.70;;
49440;SDS011;35317;51.978;6.296;2023-04-15T13:45:51;0.88;;;0.65;;
49440;SDS011;35317;51.978;6.296;2023-04-15T13:50:52;1.58;;;1.00;;
49440;SDS011;35317;51.978;6.296;2023-04-15T13:55:53;1.30;;;0.90;;
49440;SDS011;35317;51.978;6.296;2023-04-15T14:00:57;0.93;;;0.75;;
49440;SDS011;35317;51.978;6.296;2023-04-15T14:05:57;1.30;;;0.77;;
49440;SDS011;35317;51.978;6.296;2023-04-15T14:10:58;1.10;;;0.80;;
49440;SDS011;35317;51.978;6.296;2023-04-15T14:15:59;1.77;;;0.85;;
49440;SDS011;35317;51.978;6.296;2023-04-15T14:21:00;1.88;;;0.77;;
49440;SDS011;35317;51.978;6.296;2023-04-15T14:26:01;2.15;;;0.70;;
49440;SDS011;35317;51.978;6.296;2023-04-15T14:31:01;0.93;;;0.60;;
49440;SDS011;35317;51.978;6.296;2023-04-15T14:36:02;1.65;;;0.90;;
49440;SDS011;35317;51.978;6.296;2023-04-15T14:41:03;1.15;;;0.80;;
49440;SDS011;35317;51.978;6.296;2023-04-15T14:46:09;1.73;;;0.93;;
49440;SDS011;35317;51.978;6.296;2023-04-15T14:51:10;1.05;;;0.80;;
49440;SDS011;35317;51.978;6.296;2023-04-15T14:56:11;1.85;;;1.10;;
49440;SDS011;35317;51.978;6.296;2023-04-15T15:01:11;2.47;;;1.80;;
49440;SDS011;35317;51.978;6.296;2023-04-15T15:06:12;3.42;;;1.27;;
49440;SDS011;35317;51.978;6.296;2023-04-15T15:11:13;1.15;;;0.90;;
49440;SDS011;35317;51.978;6.296;2023-04-15T15:16:15;3.03;;;0.95;;
49440;SDS011;35317;51.978;6.296;2023-04-15T15:21:16;1.92;;;0.90;;
49440;SDS011;35317;51.978;6.296;2023-04-15T15:26:17;1.83;;;0.80;;
49440;SDS011;35317;51.978;6.296;2023-04-15T15:31:18;1.77;;;0.85;;
49440;SDS011;35317;51.978;6.296;2023-04-15T15:36:19;1.08;;;0.85;;
49440;SDS011;35317;51.978;6.296;2023-04-15T15:41:20;0.85;;;0.70;;
49440;SDS011;35317;51.978;6.296;2023-04-15T15:46:20;1.17;;;0.90;;
49440;SDS011;35317;51.978;6.296;2023-04-15T15:51:23;2.40;;;1.00;;
49440;SDS011;35317;51.978;6.296;2023-04-15T15:56:24;4.63;;;1.27;;
49440;SDS011;35317;51.978;6.296;2023-04-15T16:01:25;1.60;;;0.75;;
49440;SDS011;35317;51.978;6.296;2023-04-15T16:06:26;2.50;;;0.80;;
49440;SDS011;35317;51.978;6.296;2023-04-15T16:11:27;2.88;;;0.77;;
49440;SDS011;35317;51.978;6.296;2023-04-15T16:16:29;3.25;;;1.00;;
49440;SDS011;35317;51.978;6.296;2023-04-15T16:21:30;4.10;;;0.88;;
49440;SDS011;35317;51.978;6.296;2023-04-15T16:26:31;2.10;;;0.82;;
49440;SDS011;35317;51.978;6.296;2023-04-15T16:31:32;5.90;;;0.82;;
49440;SDS011;35317;51.978;6.296;2023-04-15T16:36:34;1.05;;;0.50;;
49440;SDS011;35317;51.978;6.296;2023-04-15T16:41:35;1.50;;;0.45;;
49440;SDS011;35317;51.978;6.296;2023-04-15T16:46:37;4.43;;;0.60;;
49440;SDS011;35317;51.978;6.296;2023-04-15T16:51:38;3.17;;;0.68;;
49440;SDS011;35317;51.978;6.296;2023-04-15T16:56:39;4.00;;;0.80;;
49440;SDS011;35317;51.978;6.296;2023-04-15T17:01:40;1.48;;;0.70;;
49440;SDS011;35317;51.978;6.296;2023-04-15T17:06:43;2.65;;;0.80;;
49440;SDS011;35317;51.978;6.296;2023-04-15T17:11:47;4.60;;;0.82;;
49440;SDS011;35317;51.978;6.296;2023-04-15T17:16:48;1.20;;;0.50;;
49440;SDS011;35317;51.978;6.296;2023-04-15T17:21:49;3.42;;;1.20;;
49440;SDS011;35317;51.978;6.296;2023-04-15T17:26:52;2.42;;;0.98;;
49440;SDS011;35317;51.978;6.296;2023-04-15T17:31:55;5.15;;;1.40;;
49440;SDS011;35317;51.978;6.296;2023-04-15T17:36:56;2.25;;;1.27;;
49440;SDS011;35317;51.978;6.296;2023-04-15T17:41:57;5.47;;;2.30;;
49440;SDS011;35317;51.978;6.296;2023-04-15T17:46:58;3.22;;;2.20;;
49440;SDS011;35317;51.978;6.296;2023-04-15T17:51:59;6.65;;;3.28;;
49440;SDS011;35317;51.978;6.296;2023-04-15T17:57:00;5.18;;;1.75;;
49440;SDS011;35317;51.978;6.296;2023-04-15T18:02:02;4.55;;;2.00;;
49440;SDS011;35317;51.978;6.296;2023-04-15T18:07:03;4.60;;;1.55;;
49440;SDS011;35317;51.978;6.296;2023-04-15T18:12:04;1.23;;;0.90;;
49440;SDS011;35317;51.978;6.296;2023-04-15T18:17:08;4.47;;;1.20;;
49440;SDS011;35317;51.978;6.296;2023-04-15T18:22:09;2.53;;;1.10;;
49440;SDS011;35317;51.978;6.296;2023-04-15T18:27:10;3.63;;;1.35;;
49440;SDS011;35317;51.978;6.296;2023-04-15T18:32:11;3.78;;;1.05;;
49440;SDS011;35317;51.978;6.296;2023-04-15T18:37:12;2.47;;;0.80;;
49440;SDS011;35317;51.978;6.296;2023-04-15T18:42:13;1.67;;;0.85;;
49440;SDS011;35317;51.978;6.296;2023-04-15T18:47:14;1.30;;;0.88;;
49440;SDS011;35317;51.978;6.296;2023-04-15T18:52:14;3.22;;;0.70;;
49440;SDS011;35317;51.978;6.296;2023-04-15T18:57:15;4.15;;;1.10;;
49440;SDS011;35317;51.978;6.296;2023-04-15T19:02:16;5.57;;;1.50;;
49440;SDS011;35317;51.978;6.296;2023-04-15T19:07:17;1.88;;;1.00;;
49440;SDS011;35317;51.978;6.296;2023-04-15T19:12:18;1.67;;;1.20;;
49440;SDS011;35317;51.978;6.296;2023-04-15T19:17:18;2.53;;;1.00;;
49440;SDS011;35317;51.978;6.296;2023-04-15T19:22:20;2.15;;;1.70;;
49440;SDS011;35317;51.978;6.296;2023-04-15T19:27:23;2.15;;;1.40;;
49440;SDS011;35317;51.978;6.296;2023-04-15T19:32:24;2.63;;;1.20;;
49440;SDS011;35317;51.978;6.296;2023-04-15T19:37:25;4.05;;;1.20;;
49440;SDS011;35317;51.978;6.296;2023-04-15T19:42:25;4.53;;;1.02;;
49440;SDS011;35317;51.978;6.296;2023-04-15T19:47:26;1.58;;;1.00;;
49440;SDS011;35317;51.978;6.296;2023-04-15T19:52:27;6.80;;;1.20;;
49440;SDS011;35317;51.978;6.296;2023-04-15T19:57:28;3.05;;;1.00;;
49440;SDS011;35317;51.978;6.296;2023-04-15T20:02:29;1.60;;;1.08;;
49440;SDS011;35317;51.978;6.296;2023-04-15T20:07:29;2.70;;;1.00;;
49440;SDS011;35317;51.978;6.296;2023-04-15T20:12:30;4.18;;;1.25;;
49440;SDS011;35317;51.978;6.296;2023-04-15T20:17:31;2.00;;;1.08;;
49440;SDS011;35317;51.978;6.296;2023-04-15T20:22:32;3.50;;;1.20;;
49440;SDS011;35317;51.978;6.296;2023-04-15T20:27:33;3.90;;;1.15;;
49440;SDS011;35317;51.978;6.296;2023-04-15T20:32:34;1.35;;;1.15;;
49440;SDS011;35317;51.978;6.296;2023-04-15T20:37:36;3.67;;;1.50;;
49440;SDS011;35317;51.978;6.296;2023-04-15T20:42:37;1.98;;;1.17;;
49440;SDS011;35317;51.978;6.296;2023-04-15T20:47:37;1.80;;;1.40;;
49440;SDS011;35317;51.978;6.296;2023-04-15T20:52:38;2.35;;;1.10;;
49440;SDS011;35317;51.978;6.296;2023-04-15T20:57:39;4.13;;;1.90;;
49440;SDS011;35317;51.978;6.296;2023-04-15T21:02:40;2.97;;;1.80;;
49440;SDS011;35317;51.978;6.296;2023-04-15T21:07:41;3.25;;;1.58;;
49440;SDS011;35317;51.978;6.296;2023-04-15T21:12:42;3.35;;;1.60;;
49440;SDS011;35317;51.978;6.296;2023-04-15T21:17:42;3.13;;;1.58;;
49440;SDS011;35317;51.978;6.296;2023-04-15T21:22:43;4.75;;;2.00;;
49440;SDS011;35317;51.978;6.296;2023-04-15T21:27:44;3.40;;;1.65;;
49440;SDS011;35317;51.978;6.296;2023-04-15T21:32:45;3.08;;;1.63;;
49440;SDS011;35317;51.978;6.296;2023-04-15T21:37:46;3.13;;;1.42;;
49440;SDS011;35317;51.978;6.296;2023-04-15T21:42:47;4.78;;;2.45;;
49440;SDS011;35317;51.978;6.296;2023-04-15T21:47:48;4.70;;;1.83;;
49440;SDS011;35317;51.978;6.296;2023-04-15T21:52:49;4.97;;;1.92;;
49440;SDS011;35317;51.978;6.296;2023-04-15T21:57:50;3.65;;;1.73;;
49440;SDS011;35317;51.978;6.296;2023-04-15T22:02:50;7.38;;;2.13;;
49440;SDS011;35317;51.978;6.296;2023-04-15T22:07:51;7.78;;;2.00;;
49440;SDS011;35317;51.978;6.296;2023-04-15T22:12:52;9.15;;;2.33;;
49440;SDS011;35317;51.978;6.296;2023-04-15T22:17:53;9.10;;;3.85;;
49440;SDS011;35317;51.978;6.296;2023-04-15T22:22:54;9.07;;;1.83;;
49440;SDS011;35317;51.978;6.296;2023-04-15T22:27:55;11.52;;;3.10;;
49440;SDS011;35317;51.978;6.296;2023-04-15T22:32:55;6.72;;;2.17;;
49440;SDS011;35317;51.978;6.296;2023-04-15T22:37:56;5.80;;;2.45;;
49440;SDS011;35317;51.978;6.296;2023-04-15T22:43:00;7.85;;;2.65;;
49440;SDS011;35317;51.978;6.296;2023-04-15T22:48:01;9.43;;;2.95;;
49440;SDS011;35317;51.978;6.296;2023-04-15T22:53:01;7.07;;;2.80;;
49440;SDS011;35317;51.978;6.296;2023-04-15T22:58:03;4.57;;;2.40;;
49440;SDS011;35317;51.978;6.296;2023-04-15T23:03:19;9.70;;;2.90;;
49440;SDS011;35317;51.978;6.296;2023-04-15T23:08:27;8.25;;;3.28;;
49440;SDS011;35317;51.978;6.296;2023-04-15T23:13:27;11.13;;;3.90;;
49440;SDS011;35317;51.978;6.296;2023-04-15T23:18:28;9.68;;;3.63;;
49440;SDS011;35317;51.978;6.296;2023-04-15T23:23:29;10.07;;;4.40;;
49440;SDS011;35317;51.978;6.296;2023-04-15T23:28:30;13.68;;;4.32;;
49440;SDS011;35317;51.978;6.296;2023-04-15T23:33:31;9.80;;;4.07;;
49440;SDS011;35317;51.978;6.296;2023-04-15T23:38:32;10.32;;;4.28;;
49440;SDS011;35317;51.978;6.296;2023-04-15T23:43:32;12.27;;;4.57;;
49440;SDS011;35317;51.978;6.296;2023-04-15T23:48:33;11.45;;;4.30;;
49440;SDS011;35317;51.978;6.296;2023-04-15T23:53:34;7.93;;;3.83;;
49440;SDS011;35317;51.978;6.296;2023-04-15T23:58:35;10.95;;;4.35;;
